メインページ
METAR-TAF:

METAR-TAF

空港 :

Chetwynd, ブリティッシュコロンビア州, カナダ

緯度: 55-42N, 経度: 121-38W, 海抜: 609m

現時点の気象観測

当レポートは1時間7分前の16:00(UTC)に作成
西/南西の風 4kt
気温 13°C
湿度 77%
気圧 1019 hPa
視程: 56.3km
高度12000ftの雲は散在している
高度15000ftの千切れ雲あり
高度22000ftの千切れ雲あり

METAR: CYCQ 211600Z 24004KT 35SM SCT120 BKN150 BKN220 13/09 A3010 RMK AC3AC3CS1 DEW SLP203

時間: 10:07 (17:07 UTC)


TAF: 見つかりません

4,000以上の空港の気象観測と天気予報(METAR報とTAF報)

利用可能な観測所は地図上に黄色い丸と赤い丸で示す。

丸の上にカーソルを重ねると観測所名を参照できる。

次にクリックすると気象観測と天気予報を参照できる。

マップの切り替え:黒色「×」印の緑ボタンをクリックして拡大、「-」印の緑ボタンをクリックして縮小、緑色の三角印をクリックして隣りの地図に切り替え


METAR-TAF: